createdAt,value
2022-10-02T00:02:18.445Z,9.15
2022-10-02T00:05:06.444Z,9.14
2022-10-02T00:07:42.619Z,9.25
2022-10-02T00:10:22.690Z,9.37
2022-10-02T00:12:56.922Z,9.41
2022-10-02T00:18:14.733Z,9.34
2022-10-02T00:20:58.058Z,9.44
2022-10-02T00:23:46.110Z,9.42
2022-10-02T00:26:54.648Z,9.43
2022-10-02T00:29:35.707Z,9.47
2022-10-02T00:32:12.589Z,9.49
2022-10-02T00:34:56.795Z,9.45
2022-10-02T00:37:53.067Z,9.31
2022-10-02T00:40:43.358Z,9.34
2022-10-02T00:43:24.756Z,9.49
2022-10-02T00:46:22.220Z,9.63
2022-10-02T00:48:51.279Z,9.66
2022-10-02T00:51:58.880Z,9.74
2022-10-02T00:55:35.690Z,9.68
2022-10-02T00:58:19.971Z,9.57
2022-10-02T01:01:01.957Z,9.51
2022-10-02T01:03:41.721Z,9.60
2022-10-02T01:06:09.854Z,9.77
2022-10-02T01:08:37.548Z,9.86
2022-10-02T01:11:06.513Z,9.90
2022-10-02T01:13:33.721Z,9.86
2022-10-02T01:16:01.086Z,9.93
2022-10-02T01:18:30.149Z,10.04
2022-10-02T01:21:09.069Z,9.93
2022-10-02T01:23:56.919Z,9.83
2022-10-02T01:26:23.447Z,9.87
2022-10-02T01:28:49.994Z,9.86
2022-10-02T01:31:17.574Z,9.83
2022-10-02T01:33:45.206Z,9.74
2022-10-02T01:36:14.888Z,9.75
2022-10-02T01:38:44.191Z,9.86
2022-10-02T01:41:11.814Z,10.01
2022-10-02T01:43:46.579Z,10.09
2022-10-02T01:46:41.234Z,10.04
2022-10-02T01:49:37.326Z,10.00
2022-10-02T01:52:30.474Z,9.93
2022-10-02T01:55:08.415Z,10.08
2022-10-02T01:58:23.495Z,10.05
2022-10-02T02:01:25.040Z,10.05
2022-10-02T02:04:29.087Z,9.99
2022-10-02T02:07:13.945Z,9.91
2022-10-02T02:10:08.603Z,9.92
2022-10-02T02:12:45.480Z,9.99
2022-10-02T02:16:32.937Z,10.04
2022-10-02T02:19:05.491Z,10.26
2022-10-02T02:21:43.203Z,10.24
2022-10-02T02:24:21.230Z,10.31
2022-10-02T02:26:50.157Z,10.30
2022-10-02T02:29:24.186Z,10.27
2022-10-02T02:31:57.950Z,10.32
2022-10-02T02:34:35.636Z,10.29
2022-10-02T02:37:11.363Z,10.33
2022-10-02T02:39:50.959Z,10.40
2022-10-02T02:42:26.102Z,10.53
2022-10-02T02:45:18.619Z,10.57
2022-10-02T02:48:03.784Z,10.53
2022-10-02T02:50:41.302Z,10.56
2022-10-02T02:53:31.806Z,10.54
2022-10-02T02:56:04.593Z,10.58
2022-10-02T02:58:54.369Z,10.68
2022-10-02T03:01:21.298Z,10.63
2022-10-02T03:03:48.303Z,10.53
2022-10-02T03:06:20.433Z,10.53
2022-10-02T03:08:51.561Z,10.56
2022-10-02T03:11:41.091Z,10.59
2022-10-02T03:14:42.201Z,10.57
2022-10-02T03:17:55.079Z,10.58
2022-10-02T03:21:26.870Z,10.66
2022-10-02T03:24:15.768Z,10.75
2022-10-02T03:27:00.307Z,10.78
2022-10-02T03:29:38.374Z,10.69
2022-10-02T03:32:08.816Z,10.73
2022-10-02T03:34:38.563Z,10.83
2022-10-02T03:37:06.978Z,10.85
2022-10-02T03:39:33.509Z,10.83
2022-10-02T03:42:01.082Z,10.84
2022-10-02T03:44:27.546Z,10.86
2022-10-02T03:46:54.082Z,10.92
2022-10-02T03:49:20.555Z,10.95
2022-10-02T03:51:47.010Z,10.95
2022-10-02T03:54:19.763Z,10.97
2022-10-02T03:56:57.848Z,11.01
2022-10-02T03:59:39.190Z,10.95
2022-10-02T04:02:23.495Z,10.94
2022-10-02T04:05:27.717Z,10.98
2022-10-02T04:08:00.147Z,11.05
2022-10-02T04:11:05.174Z,11.12
2022-10-02T04:13:50.663Z,11.08
2022-10-02T04:16:21.324Z,11.07
2022-10-02T04:18:58.472Z,11.12
2022-10-02T04:21:46.444Z,11.07
2022-10-02T04:24:31.559Z,11.00
2022-10-02T04:27:20.636Z,10.97
2022-10-02T04:30:05.610Z,11.02
2022-10-02T04:32:36.266Z,11.06
2022-10-02T04:35:15.048Z,11.08
2022-10-02T04:38:21.581Z,11.11
2022-10-02T04:41:18.379Z,11.12
2022-10-02T04:44:30.632Z,11.16
2022-10-02T04:47:43.079Z,11.19
2022-10-02T04:50:57.826Z,11.23
2022-10-02T04:53:59.226Z,11.16
2022-10-02T04:57:04.530Z,11.21
2022-10-02T04:59:48.301Z,11.26
2022-10-02T05:02:55.939Z,11.24
2022-10-02T05:05:42.505Z,11.25
2022-10-02T05:08:50.522Z,11.20
2022-10-02T05:12:00.184Z,11.29
2022-10-02T05:14:38.492Z,11.34
2022-10-02T05:17:28.597Z,11.30
2022-10-02T05:20:33.874Z,11.35
2022-10-02T05:23:24.191Z,11.34
2022-10-02T05:26:05.676Z,11.44
2022-10-02T05:29:11.150Z,11.52
2022-10-02T05:32:22.702Z,11.47
2022-10-02T05:35:32.440Z,11.49
2022-10-02T05:38:47.032Z,11.55
2022-10-02T05:41:45.518Z,11.62
2022-10-02T05:44:37.999Z,11.63
2022-10-02T05:47:18.059Z,11.70
2022-10-02T05:49:56.267Z,11.79
2022-10-02T05:52:54.874Z,11.76
2022-10-02T05:55:34.126Z,11.79
2022-10-02T05:58:12.087Z,11.83
2022-10-02T06:01:08.059Z,11.88
2022-10-02T06:03:55.746Z,11.90
2022-10-02T06:06:43.136Z,11.92
2022-10-02T06:09:23.534Z,11.96
2022-10-02T06:12:17.223Z,12.00
2022-10-02T06:14:50.990Z,12.06
2022-10-02T06:17:45.090Z,12.14
2022-10-02T06:20:46.250Z,12.11
2022-10-02T06:23:26.027Z,12.15
2022-10-02T06:26:02.625Z,12.17
2022-10-02T06:28:28.963Z,11.89
2022-10-02T06:31:21.523Z,12.09
2022-10-02T06:33:48.122Z,12.23
2022-10-02T06:36:32.052Z,12.32
2022-10-02T06:39:40.996Z,12.29
2022-10-02T06:42:50.826Z,12.26
2022-10-02T06:46:14.023Z,12.28
2022-10-02T06:49:09.548Z,12.33
2022-10-02T06:52:21.231Z,12.38
2022-10-02T06:55:36.855Z,12.38
2022-10-02T06:58:22.317Z,12.44
2022-10-02T07:01:03.160Z,12.50
2022-10-02T07:04:12.732Z,12.48
2022-10-02T07:07:10.417Z,12.51
2022-10-02T07:10:19.904Z,12.54
2022-10-02T07:12:59.306Z,12.54
2022-10-02T07:16:09.942Z,12.68
2022-10-02T07:18:52.620Z,12.76
2022-10-02T07:22:00.399Z,12.86
2022-10-02T07:24:43.817Z,12.96
2022-10-02T07:27:22.140Z,12.99
2022-10-02T07:30:16.199Z,13.03
2022-10-02T07:33:07.530Z,13.14
2022-10-02T07:36:06.741Z,13.20
2022-10-02T07:39:02.936Z,13.29
2022-10-02T07:41:52.131Z,13.35
2022-10-02T07:45:02.197Z,13.42
2022-10-02T07:48:32.979Z,13.42
2022-10-02T07:51:47.407Z,13.44
2022-10-02T07:55:07.275Z,13.48
2022-10-02T07:57:52.131Z,13.42
2022-10-02T08:00:23.976Z,13.49
2022-10-02T08:03:00.405Z,13.43
2022-10-02T08:05:34.698Z,13.45
2022-10-02T08:08:18.861Z,13.51
2022-10-02T08:10:53.495Z,13.45
2022-10-02T08:13:31.337Z,13.42
2022-10-02T08:15:57.895Z,13.41
2022-10-02T08:18:35.736Z,13.41
2022-10-02T08:21:12.290Z,13.41
2022-10-02T08:23:53.523Z,13.36
2022-10-02T08:26:36.308Z,13.34
2022-10-02T08:29:25.341Z,13.35
2022-10-02T08:31:53.114Z,13.38
2022-10-02T08:34:23.498Z,13.41
2022-10-02T08:37:00.479Z,13.46
2022-10-02T08:40:01.401Z,13.37
2022-10-02T08:43:24.861Z,13.32
2022-10-02T08:46:29.005Z,13.40
2022-10-02T08:49:23.247Z,13.38
2022-10-02T08:52:29.929Z,13.32
2022-10-02T08:55:25.014Z,13.45
2022-10-02T08:58:03.394Z,13.30
2022-10-02T09:00:57.662Z,13.27
2022-10-02T09:04:38.057Z,13.28
2022-10-02T09:08:08.960Z,13.17
2022-10-02T09:11:19.330Z,13.26
2022-10-02T09:14:33.720Z,13.42
2022-10-02T09:17:37.217Z,13.54
2022-10-02T09:20:42.369Z,13.53
2022-10-02T09:24:04.232Z,13.60
2022-10-02T09:26:56.535Z,13.76
2022-10-02T09:30:19.890Z,13.84
2022-10-02T09:33:59.524Z,13.93
2022-10-02T09:37:04.095Z,13.65
2022-10-02T09:39:54.971Z,13.79
2022-10-02T09:42:48.838Z,13.76
2022-10-02T09:45:51.207Z,13.83
2022-10-02T09:48:59.273Z,13.76
2022-10-02T09:51:41.678Z,13.51
2022-10-02T09:55:05.807Z,13.78
2022-10-02T09:58:12.023Z,13.78
2022-10-02T10:00:56.962Z,13.88
2022-10-02T10:04:08.981Z,14.00
2022-10-02T10:07:19.253Z,14.03
2022-10-02T10:10:12.868Z,14.12
2022-10-02T10:13:12.385Z,14.07
2022-10-02T10:16:13.207Z,14.18
2022-10-02T10:19:05.831Z,14.28
2022-10-02T10:22:20.930Z,14.41
2022-10-02T10:25:15.526Z,14.49
2022-10-02T10:28:50.512Z,14.45
2022-10-02T10:31:50.351Z,14.46
2022-10-02T10:34:47.822Z,14.31
2022-10-02T10:38:13.635Z,14.29
2022-10-02T10:40:47.934Z,14.14
2022-10-02T10:43:43.434Z,14.21
2022-10-02T10:46:34.222Z,14.30
2022-10-02T10:50:04.426Z,14.31
2022-10-02T10:53:03.895Z,14.25
2022-10-02T10:56:09.186Z,14.36
2022-10-02T10:59:25.361Z,14.31
2022-10-02T11:02:54.600Z,14.22
2022-10-02T11:05:51.658Z,13.96
2022-10-02T11:08:46.473Z,14.16
2022-10-02T11:11:55.316Z,13.99
2022-10-02T11:14:59.198Z,14.11
2022-10-02T11:17:54.012Z,14.17
2022-10-02T11:20:44.077Z,14.15
2022-10-02T11:23:55.276Z,14.20
2022-10-02T11:26:38.780Z,14.46
2022-10-02T11:29:33.966Z,14.75
2022-10-02T11:32:27.876Z,14.87
2022-10-02T11:35:27.870Z,14.86
2022-10-02T11:38:22.286Z,15.05
2022-10-02T11:41:43.603Z,14.96
2022-10-02T11:44:36.876Z,15.08
2022-10-02T11:47:29.698Z,14.93
2022-10-02T11:51:03.079Z,15.04
2022-10-02T11:53:52.183Z,15.12
2022-10-02T11:57:00.449Z,15.26
2022-10-02T12:00:29.851Z,15.19
2022-10-02T12:03:36.349Z,15.35
2022-10-02T12:06:33.606Z,15.34
2022-10-02T12:09:35.888Z,15.45
2022-10-02T12:12:36.632Z,15.58
2022-10-02T12:15:48.843Z,15.69
2022-10-02T12:18:37.903Z,15.73
2022-10-02T12:22:00.007Z,15.75
2022-10-02T12:25:17.298Z,15.78
2022-10-02T12:28:20.029Z,15.70
2022-10-02T12:31:19.178Z,15.81
2022-10-02T12:34:14.046Z,15.85
2022-10-02T12:37:01.367Z,15.85
2022-10-02T12:39:57.235Z,15.59
2022-10-02T12:43:44.137Z,15.52
2022-10-02T12:46:47.088Z,15.51
2022-10-02T12:49:45.569Z,15.52
2022-10-02T12:52:42.990Z,15.62
2022-10-02T12:55:50.784Z,15.60
2022-10-02T12:59:05.164Z,15.39
2022-10-02T13:02:07.427Z,15.44
2022-10-02T13:05:28.666Z,15.46
2022-10-02T13:08:28.920Z,15.50
2022-10-02T13:11:34.245Z,15.67
2022-10-02T13:14:39.032Z,15.55
2022-10-02T13:17:30.896Z,15.53
2022-10-02T13:20:11.788Z,15.64
2022-10-02T13:23:12.882Z,15.60
2022-10-02T13:25:59.024Z,15.59
2022-10-02T13:29:22.877Z,15.44
2022-10-02T13:32:20.362Z,15.55
2022-10-02T13:34:59.342Z,15.35
2022-10-02T13:37:36.889Z,15.50
2022-10-02T13:40:27.370Z,15.69
2022-10-02T13:43:09.070Z,15.70
2022-10-02T13:46:06.562Z,15.80
2022-10-02T13:49:02.165Z,15.52
2022-10-02T13:51:52.751Z,15.59
2022-10-02T13:55:15.980Z,15.72
2022-10-02T13:58:25.918Z,15.76
2022-10-02T14:01:12.218Z,15.75
2022-10-02T14:04:02.913Z,15.78
2022-10-02T14:06:40.734Z,15.85
2022-10-02T14:09:41.706Z,15.85
2022-10-02T14:12:30.365Z,15.88
2022-10-02T14:15:30.585Z,15.87
2022-10-02T14:18:15.578Z,15.74
2022-10-02T14:20:59.989Z,15.71
2022-10-02T14:24:14.959Z,15.73
2022-10-02T14:27:30.018Z,15.63
2022-10-02T14:30:12.513Z,15.69
2022-10-02T14:33:17.803Z,15.65
2022-10-02T14:36:02.208Z,15.60
2022-10-02T14:38:59.656Z,15.66
2022-10-02T14:42:01.438Z,15.42
2022-10-02T14:45:04.264Z,15.68
2022-10-02T14:48:09.247Z,15.52
2022-10-02T14:51:43.096Z,15.54
2022-10-02T14:54:12.272Z,15.50
2022-10-02T14:57:03.369Z,15.57
2022-10-02T14:59:54.861Z,15.57
2022-10-02T15:03:10.960Z,15.55
2022-10-02T15:06:09.375Z,15.48
2022-10-02T15:08:48.211Z,15.42
2022-10-02T15:12:01.936Z,15.37
2022-10-02T15:14:59.506Z,15.33
2022-10-02T15:17:56.459Z,15.36
2022-10-02T15:20:37.837Z,15.42
2022-10-02T15:23:11.883Z,15.50
2022-10-02T15:26:33.250Z,15.49
2022-10-02T15:29:18.434Z,15.48
2022-10-02T15:32:32.978Z,15.67
2022-10-02T15:35:22.178Z,15.63
2022-10-02T15:38:32.041Z,15.56
2022-10-02T15:41:28.444Z,15.51
2022-10-02T15:44:18.894Z,15.32
2022-10-02T15:46:55.824Z,15.21
2022-10-02T15:50:04.007Z,15.33
2022-10-02T15:53:30.882Z,15.35
2022-10-02T15:56:39.093Z,15.25
2022-10-02T15:59:37.952Z,15.27
2022-10-02T16:02:33.594Z,15.29
2022-10-02T16:05:36.494Z,15.10
2022-10-02T16:08:40.174Z,15.09
2022-10-02T16:11:15.809Z,15.19
2022-10-02T16:14:06.612Z,15.16
2022-10-02T16:16:58.458Z,15.19
2022-10-02T16:19:52.636Z,15.18
2022-10-02T16:22:36.541Z,15.24
2022-10-02T16:25:48.994Z,15.17
2022-10-02T16:28:51.516Z,15.20
2022-10-02T16:32:04.673Z,15.17
2022-10-02T16:35:19.895Z,15.00
2022-10-02T16:37:59.846Z,15.09
2022-10-02T16:40:56.717Z,15.17
2022-10-02T16:43:51.089Z,15.05
2022-10-02T16:46:34.502Z,15.02
2022-10-02T16:49:09.611Z,15.01
2022-10-02T16:51:57.578Z,15.00
2022-10-02T16:54:37.627Z,14.92
2022-10-02T16:57:49.947Z,14.74
2022-10-02T17:00:34.208Z,14.68
2022-10-02T17:03:31.434Z,14.69
2022-10-02T17:06:10.811Z,14.72
2022-10-02T17:08:53.786Z,14.59
2022-10-02T17:11:32.611Z,14.59
2022-10-02T17:14:09.500Z,14.56
2022-10-02T17:16:52.232Z,14.56
2022-10-02T17:19:44.166Z,14.53
2022-10-02T17:22:51.447Z,14.39
2022-10-02T17:25:30.164Z,14.33
2022-10-02T17:28:29.401Z,14.25
2022-10-02T17:31:16.591Z,14.17
2022-10-02T17:34:29.270Z,14.08
2022-10-02T17:37:13.964Z,14.10
2022-10-02T17:40:16.489Z,14.20
2022-10-02T17:43:24.044Z,14.13
2022-10-02T17:46:43.118Z,14.04
2022-10-02T17:49:41.506Z,14.08
2022-10-02T17:52:35.794Z,13.95
2022-10-02T17:55:36.786Z,13.83
2022-10-02T17:58:23.230Z,13.79
2022-10-02T18:01:28.323Z,13.74
2022-10-02T18:04:19.107Z,13.68
2022-10-02T18:07:33.643Z,13.56
2022-10-02T18:10:48.076Z,13.49
2022-10-02T18:13:39.178Z,13.49
2022-10-02T18:16:33.498Z,13.56
2022-10-02T18:19:30.103Z,13.39
2022-10-02T18:22:36.745Z,13.42
2022-10-02T18:25:23.704Z,13.40
2022-10-02T18:28:23.481Z,13.27
2022-10-02T18:31:17.388Z,13.11
2022-10-02T18:34:21.025Z,13.05
2022-10-02T18:37:23.255Z,12.81
2022-10-02T18:40:27.725Z,12.87
2022-10-02T18:43:21.041Z,12.96
2022-10-02T18:46:10.599Z,12.97
2022-10-02T18:48:50.390Z,12.92
2022-10-02T18:51:46.190Z,12.78
2022-10-02T18:54:35.027Z,12.69
2022-10-02T18:57:07.593Z,12.47
2022-10-02T18:59:58.258Z,12.27
2022-10-02T19:02:50.011Z,12.11
2022-10-02T19:05:38.720Z,12.09
2022-10-02T19:08:05.122Z,11.97
2022-10-02T19:10:31.443Z,11.89
2022-10-02T19:13:17.528Z,11.81
2022-10-02T19:15:58.287Z,11.75
2022-10-02T19:18:29.463Z,11.58
2022-10-02T19:21:09.386Z,11.72
2022-10-02T19:23:47.424Z,11.82
2022-10-02T19:26:26.880Z,11.76
2022-10-02T19:28:59.781Z,11.57
2022-10-02T19:31:30.655Z,11.45
2022-10-02T19:34:03.335Z,11.33
2022-10-02T19:36:41.881Z,11.29
2022-10-02T19:39:24.378Z,11.14
2022-10-02T19:41:57.559Z,11.05
2022-10-02T19:44:41.618Z,11.07
2022-10-02T19:47:22.682Z,11.04
2022-10-02T19:49:52.215Z,11.05
2022-10-02T19:52:40.462Z,10.86
2022-10-02T19:55:26.630Z,10.71
2022-10-02T19:58:06.244Z,10.81
2022-10-02T20:00:38.649Z,10.89
2022-10-02T20:03:15.653Z,10.87
2022-10-02T20:05:45.086Z,10.86
2022-10-02T20:08:17.725Z,10.63
2022-10-02T20:11:25.160Z,10.54
2022-10-02T20:14:13.124Z,10.48
2022-10-02T20:17:02.606Z,10.39
2022-10-02T20:19:35.794Z,10.27
2022-10-02T20:22:16.022Z,10.36
2022-10-02T20:25:11.422Z,10.33
2022-10-02T20:28:17.408Z,10.19
2022-10-02T20:30:55.120Z,10.16
2022-10-02T20:33:28.424Z,10.17
2022-10-02T20:36:03.374Z,10.14
2022-10-02T20:38:41.711Z,10.04
2022-10-02T20:41:21.353Z,9.89
2022-10-02T20:43:53.940Z,9.84
2022-10-02T20:47:08.312Z,9.84
2022-10-02T20:49:52.629Z,9.93
2022-10-02T20:52:53.128Z,9.96
2022-10-02T20:55:32.672Z,9.66
2022-10-02T20:58:30.908Z,9.58
2022-10-02T21:01:21.161Z,9.63
2022-10-02T21:04:12.987Z,9.53
2022-10-02T21:06:54.677Z,9.39
2022-10-02T21:10:12.319Z,9.40
2022-10-02T21:13:24.208Z,9.45
2022-10-02T21:16:29.042Z,9.60
2022-10-02T21:19:16.626Z,9.63
2022-10-02T21:22:33.823Z,9.66
2022-10-02T21:25:56.450Z,9.66
2022-10-02T21:29:04.953Z,9.72
2022-10-02T21:32:12.635Z,9.44
2022-10-02T21:34:56.307Z,9.39
2022-10-02T21:38:02.199Z,9.21
2022-10-02T21:41:13.766Z,8.98
2022-10-02T21:44:11.375Z,8.85
2022-10-02T21:46:52.973Z,8.57
2022-10-02T21:49:25.379Z,8.91
2022-10-02T21:52:30.083Z,9.02
2022-10-02T21:55:39.492Z,8.96
2022-10-02T21:59:05.574Z,8.82
2022-10-02T22:02:08.190Z,8.94
2022-10-02T22:05:12.120Z,8.84
2022-10-02T22:08:01.781Z,8.80
2022-10-02T22:11:04.773Z,8.75
2022-10-02T22:13:43.593Z,8.54
2022-10-02T22:16:37.203Z,8.55
2022-10-02T22:19:40.070Z,8.66
2022-10-02T22:22:47.527Z,8.44
2022-10-02T22:25:46.300Z,8.36
2022-10-02T22:28:29.662Z,8.46
2022-10-02T22:30:56.170Z,8.56
2022-10-02T22:33:54.904Z,8.47
2022-10-02T22:37:01.227Z,8.46
2022-10-02T22:39:41.439Z,8.25
2022-10-02T22:42:10.407Z,8.33
2022-10-02T22:44:59.505Z,8.38
2022-10-02T22:48:05.038Z,8.21
2022-10-02T22:51:09.779Z,8.12
2022-10-02T22:53:56.413Z,8.25
2022-10-02T22:56:36.968Z,8.34
2022-10-02T22:59:13.559Z,8.32
2022-10-02T23:01:46.529Z,8.10
2022-10-02T23:04:36.305Z,8.36
2022-10-02T23:07:59.505Z,8.41
2022-10-02T23:10:44.738Z,8.50
2022-10-02T23:13:44.815Z,8.36
2022-10-02T23:16:25.094Z,8.49
2022-10-02T23:19:47.075Z,8.48
2022-10-02T23:22:13.448Z,8.53
2022-10-02T23:25:17.267Z,8.39
2022-10-02T23:28:25.315Z,8.39
2022-10-02T23:31:15.240Z,8.36
2022-10-02T23:34:41.441Z,8.43
2022-10-02T23:37:25.387Z,8.32
2022-10-02T23:40:47.005Z,8.12
2022-10-02T23:43:33.788Z,7.88
2022-10-02T23:46:11.002Z,7.96
2022-10-02T23:48:39.126Z,8.11
2022-10-02T23:51:34.867Z,8.16
2022-10-02T23:54:49.884Z,7.90
2022-10-02T23:57:45.785Z,7.81
